sensor_id;sensor_type;location;lat;lon;timestamp;temperature;humidity
30764;DHT22;17497;51.476;7.770;2022-11-21T00:00:49;3.00;99.90
30764;DHT22;17497;51.476;7.770;2022-11-21T00:03:16;2.90;99.90
30764;DHT22;17497;51.476;7.770;2022-11-21T00:05:46;2.90;99.90
30764;DHT22;17497;51.476;7.770;2022-11-21T00:08:15;2.90;99.90
30764;DHT22;17497;51.476;7.770;2022-11-21T00:10:43;2.80;99.90
30764;DHT22;17497;51.476;7.770;2022-11-21T00:13:17;2.80;99.90
30764;DHT22;17497;51.476;7.770;2022-11-21T00:15:45;2.80;99.90
30764;DHT22;17497;51.476;7.770;2022-11-21T00:18:13;2.80;99.90
30764;DHT22;17497;51.476;7.770;2022-11-21T00:20:43;2.80;99.90
30764;DHT22;17497;51.476;7.770;2022-11-21T00:23:10;2.80;99.90
30764;DHT22;17497;51.476;7.770;2022-11-21T00:25:37;2.80;99.90
30764;DHT22;17497;51.476;7.770;2022-11-21T00:28:05;2.80;99.90
30764;DHT22;17497;51.476;7.770;2022-11-21T00:30:32;2.80;99.90
30764;DHT22;17497;51.476;7.770;2022-11-21T00:32:59;2.80;99.90
30764;DHT22;17497;51.476;7.770;2022-11-21T00:35:26;2.70;99.90
30764;DHT22;17497;51.476;7.770;2022-11-21T00:37:53;2.70;99.90
30764;DHT22;17497;51.476;7.770;2022-11-21T00:40:20;2.60;99.90
30764;DHT22;17497;51.476;7.770;2022-11-21T00:42:47;2.60;99.90
30764;DHT22;17497;51.476;7.770;2022-11-21T00:45:14;2.50;99.90
30764;DHT22;17497;51.476;7.770;2022-11-21T00:47:48;2.50;99.90
30764;DHT22;17497;51.476;7.770;2022-11-21T00:50:14;2.50;99.90
30764;DHT22;17497;51.476;7.770;2022-11-21T00:52:41;2.50;99.90
30764;DHT22;17497;51.476;7.770;2022-11-21T00:55:08;2.50;99.90
30764;DHT22;17497;51.476;7.770;2022-11-21T00:57:35;2.50;99.90
30764;DHT22;17497;51.476;7.770;2022-11-21T01:00:03;2.40;99.90
30764;DHT22;17497;51.476;7.770;2022-11-21T01:02:31;2.50;99.90
30764;DHT22;17497;51.476;7.770;2022-11-21T01:04:58;2.40;99.90
30764;DHT22;17497;51.476;7.770;2022-11-21T01:07:24;2.40;99.90
30764;DHT22;17497;51.476;7.770;2022-11-21T01:09:51;2.40;99.90
30764;DHT22;17497;51.476;7.770;2022-11-21T01:12:18;2.50;99.90
30764;DHT22;17497;51.476;7.770;2022-11-21T01:14:47;2.40;99.90
30764;DHT22;17497;51.476;7.770;2022-11-21T01:17:14;2.30;99.90
30764;DHT22;17497;51.476;7.770;2022-11-21T01:19:41;2.30;99.90
30764;DHT22;17497;51.476;7.770;2022-11-21T01:22:07;2.30;99.90
30764;DHT22;17497;51.476;7.770;2022-11-21T01:24:34;2.30;99.90
30764;DHT22;17497;51.476;7.770;2022-11-21T01:27:01;2.30;99.90
30764;DHT22;17497;51.476;7.770;2022-11-21T01:29:27;2.30;99.90
30764;DHT22;17497;51.476;7.770;2022-11-21T01:31:54;2.30;99.90
30764;DHT22;17497;51.476;7.770;2022-11-21T01:34:21;2.30;99.90
30764;DHT22;17497;51.476;7.770;2022-11-21T01:36:48;2.40;99.90
30764;DHT22;17497;51.476;7.770;2022-11-21T01:39:14;2.40;99.90
30764;DHT22;17497;51.476;7.770;2022-11-21T01:41:43;2.40;99.90
30764;DHT22;17497;51.476;7.770;2022-11-21T01:44:20;2.40;99.90
30764;DHT22;17497;51.476;7.770;2022-11-21T01:46:48;2.40;99.90
30764;DHT22;17497;51.476;7.770;2022-11-21T01:49:25;2.40;99.90
30764;DHT22;17497;51.476;7.770;2022-11-21T01:57:28;2.30;99.90
30764;DHT22;17497;51.476;7.770;2022-11-21T02:00:02;2.30;99.90
30764;DHT22;17497;51.476;7.770;2022-11-21T02:02:37;2.30;99.90
30764;DHT22;17497;51.476;7.770;2022-11-21T02:05:08;2.20;99.90
30764;DHT22;17497;51.476;7.770;2022-11-21T02:07:39;2.20;99.90
30764;DHT22;17497;51.476;7.770;2022-11-21T02:10:08;2.10;99.90
30764;DHT22;17497;51.476;7.770;2022-11-21T02:15:18;2.10;99.90
30764;DHT22;17497;51.476;7.770;2022-11-21T02:17:46;2.10;99.90
30764;DHT22;17497;51.476;7.770;2022-11-21T02:20:15;2.10;99.90
30764;DHT22;17497;51.476;7.770;2022-11-21T02:25:31;2.10;99.90
30764;DHT22;17497;51.476;7.770;2022-11-21T02:28:04;2.10;99.90
30764;DHT22;17497;51.476;7.770;2022-11-21T02:30:33;2.00;99.90
30764;DHT22;17497;51.476;7.770;2022-11-21T02:33:00;1.90;99.90
30764;DHT22;17497;51.476;7.770;2022-11-21T02:35:27;1.90;99.90
30764;DHT22;17497;51.476;7.770;2022-11-21T02:37:58;1.90;99.90
30764;DHT22;17497;51.476;7.770;2022-11-21T02:40:28;1.90;99.90
30764;DHT22;17497;51.476;7.770;2022-11-21T02:43:16;1.90;99.90
30764;DHT22;17497;51.476;7.770;2022-11-21T02:45:44;2.00;99.90
30764;DHT22;17497;51.476;7.770;2022-11-21T02:48:12;2.00;99.90
30764;DHT22;17497;51.476;7.770;2022-11-21T02:50:41;2.00;99.90
30764;DHT22;17497;51.476;7.770;2022-11-21T02:53:13;2.00;99.90
30764;DHT22;17497;51.476;7.770;2022-11-21T02:55:41;2.00;99.90
30764;DHT22;17497;51.476;7.770;2022-11-21T02:58:08;2.00;99.90
30764;DHT22;17497;51.476;7.770;2022-11-21T03:00:36;2.00;99.90
30764;DHT22;17497;51.476;7.770;2022-11-21T03:03:03;2.10;99.90
30764;DHT22;17497;51.476;7.770;2022-11-21T03:05:30;2.10;99.90
30764;DHT22;17497;51.476;7.770;2022-11-21T03:07:57;2.10;99.90
30764;DHT22;17497;51.476;7.770;2022-11-21T03:10:24;2.20;99.90
30764;DHT22;17497;51.476;7.770;2022-11-21T03:12:51;2.20;99.90
30764;DHT22;17497;51.476;7.770;2022-11-21T03:15:28;2.20;99.90
30764;DHT22;17497;51.476;7.770;2022-11-21T03:17:55;2.30;99.90
30764;DHT22;17497;51.476;7.770;2022-11-21T03:20:23;2.30;99.90
30764;DHT22;17497;51.476;7.770;2022-11-21T03:22:49;2.30;99.90
30764;DHT22;17497;51.476;7.770;2022-11-21T03:25:16;2.30;99.90
30764;DHT22;17497;51.476;7.770;2022-11-21T03:27:43;2.30;99.90
30764;DHT22;17497;51.476;7.770;2022-11-21T03:30:10;2.20;99.90
30764;DHT22;17497;51.476;7.770;2022-11-21T03:32:37;2.30;99.90
30764;DHT22;17497;51.476;7.770;2022-11-21T03:35:04;2.30;99.90
30764;DHT22;17497;51.476;7.770;2022-11-21T03:37:31;2.30;99.90
30764;DHT22;17497;51.476;7.770;2022-11-21T03:39:58;2.30;99.90
30764;DHT22;17497;51.476;7.770;2022-11-21T03:42:24;2.20;99.90
30764;DHT22;17497;51.476;7.770;2022-11-21T03:44:51;2.30;99.90
30764;DHT22;17497;51.476;7.770;2022-11-21T03:47:18;2.30;99.90
30764;DHT22;17497;51.476;7.770;2022-11-21T03:49:44;2.30;99.90
30764;DHT22;17497;51.476;7.770;2022-11-21T03:52:11;2.30;99.90
30764;DHT22;17497;51.476;7.770;2022-11-21T03:54:37;2.30;99.90
30764;DHT22;17497;51.476;7.770;2022-11-21T03:57:04;2.30;99.90
30764;DHT22;17497;51.476;7.770;2022-11-21T03:59:31;2.30;99.90
30764;DHT22;17497;51.476;7.770;2022-11-21T04:01:57;2.30;99.90
30764;DHT22;17497;51.476;7.770;2022-11-21T04:04:24;2.20;99.90
30764;DHT22;17497;51.476;7.770;2022-11-21T04:06:51;2.10;99.90
30764;DHT22;17497;51.476;7.770;2022-11-21T04:09:18;2.10;99.90
30764;DHT22;17497;51.476;7.770;2022-11-21T04:11:45;2.20;99.90
30764;DHT22;17497;51.476;7.770;2022-11-21T04:14:12;2.30;99.90
30764;DHT22;17497;51.476;7.770;2022-11-21T04:16:38;2.30;99.90
30764;DHT22;17497;51.476;7.770;2022-11-21T04:19:05;2.30;99.90
30764;DHT22;17497;51.476;7.770;2022-11-21T04:21:31;2.40;99.90
30764;DHT22;17497;51.476;7.770;2022-11-21T04:23:58;2.40;99.90
30764;DHT22;17497;51.476;7.770;2022-11-21T04:26:25;2.40;99.90
30764;DHT22;17497;51.476;7.770;2022-11-21T04:28:52;2.30;99.90
30764;DHT22;17497;51.476;7.770;2022-11-21T04:31:18;2.30;99.90
30764;DHT22;17497;51.476;7.770;2022-11-21T04:33:45;2.20;99.90
30764;DHT22;17497;51.476;7.770;2022-11-21T04:36:12;2.30;99.90
30764;DHT22;17497;51.476;7.770;2022-11-21T04:38:39;2.30;99.90
30764;DHT22;17497;51.476;7.770;2022-11-21T04:41:05;2.30;99.90
30764;DHT22;17497;51.476;7.770;2022-11-21T04:43:32;2.30;99.90
30764;DHT22;17497;51.476;7.770;2022-11-21T04:45:59;2.30;99.90
30764;DHT22;17497;51.476;7.770;2022-11-21T04:48:25;2.30;99.90
30764;DHT22;17497;51.476;7.770;2022-11-21T04:50:52;2.30;99.90
30764;DHT22;17497;51.476;7.770;2022-11-21T04:53:19;2.30;99.90
30764;DHT22;17497;51.476;7.770;2022-11-21T04:55:45;2.30;99.90
30764;DHT22;17497;51.476;7.770;2022-11-21T04:58:12;2.30;99.90
30764;DHT22;17497;51.476;7.770;2022-11-21T05:00:39;2.30;99.90
30764;DHT22;17497;51.476;7.770;2022-11-21T05:03:06;2.30;99.90
30764;DHT22;17497;51.476;7.770;2022-11-21T05:05:33;2.30;99.90
30764;DHT22;17497;51.476;7.770;2022-11-21T05:07:59;2.40;99.90
30764;DHT22;17497;51.476;7.770;2022-11-21T05:10:26;2.30;99.90
30764;DHT22;17497;51.476;7.770;2022-11-21T05:12:59;2.30;99.90
30764;DHT22;17497;51.476;7.770;2022-11-21T05:15:45;2.30;99.90
30764;DHT22;17497;51.476;7.770;2022-11-21T05:18:13;2.30;99.90
30764;DHT22;17497;51.476;7.770;2022-11-21T05:20:39;2.30;99.90
30764;DHT22;17497;51.476;7.770;2022-11-21T05:23:06;2.30;99.90
30764;DHT22;17497;51.476;7.770;2022-11-21T05:25:32;2.30;99.90
30764;DHT22;17497;51.476;7.770;2022-11-21T05:27:59;2.30;99.90
30764;DHT22;17497;51.476;7.770;2022-11-21T05:30:26;2.30;99.90
30764;DHT22;17497;51.476;7.770;2022-11-21T05:32:52;2.30;99.90
30764;DHT22;17497;51.476;7.770;2022-11-21T05:35:19;2.30;99.90
30764;DHT22;17497;51.476;7.770;2022-11-21T05:37:46;2.40;99.90
30764;DHT22;17497;51.476;7.770;2022-11-21T05:40:13;2.50;99.90
30764;DHT22;17497;51.476;7.770;2022-11-21T05:42:41;2.50;99.90
30764;DHT22;17497;51.476;7.770;2022-11-21T05:45:26;2.50;99.90
30764;DHT22;17497;51.476;7.770;2022-11-21T05:47:53;2.60;99.90
30764;DHT22;17497;51.476;7.770;2022-11-21T05:50:19;2.60;99.90
30764;DHT22;17497;51.476;7.770;2022-11-21T05:52:46;2.60;99.90
30764;DHT22;17497;51.476;7.770;2022-11-21T05:55:13;2.50;99.90
30764;DHT22;17497;51.476;7.770;2022-11-21T05:57:40;2.40;99.90
30764;DHT22;17497;51.476;7.770;2022-11-21T06:00:07;2.40;99.90
30764;DHT22;17497;51.476;7.770;2022-11-21T06:02:34;2.40;99.90
30764;DHT22;17497;51.476;7.770;2022-11-21T06:05:19;2.40;99.90
30764;DHT22;17497;51.476;7.770;2022-11-21T06:07:46;2.50;99.90
30764;DHT22;17497;51.476;7.770;2022-11-21T06:10:13;2.50;99.90
30764;DHT22;17497;51.476;7.770;2022-11-21T06:12:39;2.50;99.90
30764;DHT22;17497;51.476;7.770;2022-11-21T06:15:06;2.50;99.90
30764;DHT22;17497;51.476;7.770;2022-11-21T06:17:33;2.50;99.90
30764;DHT22;17497;51.476;7.770;2022-11-21T06:20:00;2.40;99.90
30764;DHT22;17497;51.476;7.770;2022-11-21T06:22:27;2.50;99.90
30764;DHT22;17497;51.476;7.770;2022-11-21T06:24:53;2.50;99.90
30764;DHT22;17497;51.476;7.770;2022-11-21T06:27:20;2.50;99.90
30764;DHT22;17497;51.476;7.770;2022-11-21T06:29:47;2.50;99.90
30764;DHT22;17497;51.476;7.770;2022-11-21T06:32:13;2.60;99.90
30764;DHT22;17497;51.476;7.770;2022-11-21T06:34:40;2.50;99.90
30764;DHT22;17497;51.476;7.770;2022-11-21T06:37:07;2.40;99.90
30764;DHT22;17497;51.476;7.770;2022-11-21T06:39:33;2.20;99.90
30764;DHT22;17497;51.476;7.770;2022-11-21T06:42:01;2.10;99.90
30764;DHT22;17497;51.476;7.770;2022-11-21T06:44:27;2.10;99.90
30764;DHT22;17497;51.476;7.770;2022-11-21T06:46:54;2.10;99.90
30764;DHT22;17497;51.476;7.770;2022-11-21T06:49:21;2.20;99.90
30764;DHT22;17497;51.476;7.770;2022-11-21T06:51:48;2.30;99.90
30764;DHT22;17497;51.476;7.770;2022-11-21T06:54:16;2.30;99.90
30764;DHT22;17497;51.476;7.770;2022-11-21T06:56:43;2.30;99.90
30764;DHT22;17497;51.476;7.770;2022-11-21T06:59:10;2.30;99.90
30764;DHT22;17497;51.476;7.770;2022-11-21T07:01:37;2.40;99.90
30764;DHT22;17497;51.476;7.770;2022-11-21T07:04:03;2.40;99.90
30764;DHT22;17497;51.476;7.770;2022-11-21T07:06:30;2.50;99.90
30764;DHT22;17497;51.476;7.770;2022-11-21T07:08:57;2.50;99.90
30764;DHT22;17497;51.476;7.770;2022-11-21T07:11:43;2.60;99.90
30764;DHT22;17497;51.476;7.770;2022-11-21T07:14:10;2.60;99.90
30764;DHT22;17497;51.476;7.770;2022-11-21T07:16:37;2.70;99.90
30764;DHT22;17497;51.476;7.770;2022-11-21T07:19:04;2.70;99.90
30764;DHT22;17497;51.476;7.770;2022-11-21T07:21:31;2.80;99.90
30764;DHT22;17497;51.476;7.770;2022-11-21T07:23:58;2.80;99.90
30764;DHT22;17497;51.476;7.770;2022-11-21T07:26:25;2.90;99.90
30764;DHT22;17497;51.476;7.770;2022-11-21T07:28:51;3.00;99.90
30764;DHT22;17497;51.476;7.770;2022-11-21T07:31:18;3.00;99.90
30764;DHT22;17497;51.476;7.770;2022-11-21T07:33:45;3.00;99.90
30764;DHT22;17497;51.476;7.770;2022-11-21T07:36:12;3.10;99.90
30764;DHT22;17497;51.476;7.770;2022-11-21T07:38:39;3.10;99.90
30764;DHT22;17497;51.476;7.770;2022-11-21T07:41:07;3.10;99.90
30764;DHT22;17497;51.476;7.770;2022-11-21T07:43:34;3.00;99.90
30764;DHT22;17497;51.476;7.770;2022-11-21T07:46:00;3.10;99.90
30764;DHT22;17497;51.476;7.770;2022-11-21T07:48:27;3.20;99.90
30764;DHT22;17497;51.476;7.770;2022-11-21T07:50:54;3.10;99.90
30764;DHT22;17497;51.476;7.770;2022-11-21T07:53:20;3.10;99.90
30764;DHT22;17497;51.476;7.770;2022-11-21T07:55:47;3.20;99.90
30764;DHT22;17497;51.476;7.770;2022-11-21T07:58:16;3.30;99.90
30764;DHT22;17497;51.476;7.770;2022-11-21T08:00:42;3.30;99.90
30764;DHT22;17497;51.476;7.770;2022-11-21T08:03:10;3.30;99.90
30764;DHT22;17497;51.476;7.770;2022-11-21T08:05:40;3.40;99.90
30764;DHT22;17497;51.476;7.770;2022-11-21T08:08:08;3.40;99.90
30764;DHT22;17497;51.476;7.770;2022-11-21T08:10:41;3.50;99.90
30764;DHT22;17497;51.476;7.770;2022-11-21T08:13:09;3.40;99.90
30764;DHT22;17497;51.476;7.770;2022-11-21T08:15:35;3.50;99.90
30764;DHT22;17497;51.476;7.770;2022-11-21T08:18:09;3.40;99.90
30764;DHT22;17497;51.476;7.770;2022-11-21T08:20:37;3.50;99.90
30764;DHT22;17497;51.476;7.770;2022-11-21T08:23:04;3.60;99.90
30764;DHT22;17497;51.476;7.770;2022-11-21T08:25:33;3.60;99.90
30764;DHT22;17497;51.476;7.770;2022-11-21T08:27:59;3.50;99.90
30764;DHT22;17497;51.476;7.770;2022-11-21T08:30:28;3.50;99.90
30764;DHT22;17497;51.476;7.770;2022-11-21T08:32:57;3.50;99.90
30764;DHT22;17497;51.476;7.770;2022-11-21T08:35:25;3.60;99.90
30764;DHT22;17497;51.476;7.770;2022-11-21T08:37:59;3.70;99.90
30764;DHT22;17497;51.476;7.770;2022-11-21T08:40:27;3.70;99.90
30764;DHT22;17497;51.476;7.770;2022-11-21T08:43:02;3.80;99.90
30764;DHT22;17497;51.476;7.770;2022-11-21T08:45:30;3.90;99.90
30764;DHT22;17497;51.476;7.770;2022-11-21T08:47:57;4.00;99.90
30764;DHT22;17497;51.476;7.770;2022-11-21T08:50:24;4.00;99.90
30764;DHT22;17497;51.476;7.770;2022-11-21T08:52:51;4.10;99.90
30764;DHT22;17497;51.476;7.770;2022-11-21T08:55:18;4.20;99.90
30764;DHT22;17497;51.476;7.770;2022-11-21T08:57:44;4.30;99.90
30764;DHT22;17497;51.476;7.770;2022-11-21T09:00:12;4.30;99.90
30764;DHT22;17497;51.476;7.770;2022-11-21T09:02:39;4.30;99.90
30764;DHT22;17497;51.476;7.770;2022-11-21T09:05:06;4.40;99.90
30764;DHT22;17497;51.476;7.770;2022-11-21T09:07:33;4.50;99.90
30764;DHT22;17497;51.476;7.770;2022-11-21T09:10:00;4.50;99.90
30764;DHT22;17497;51.476;7.770;2022-11-21T09:12:27;4.60;99.90
30764;DHT22;17497;51.476;7.770;2022-11-21T09:14:53;4.70;99.90
30764;DHT22;17497;51.476;7.770;2022-11-21T09:17:39;4.70;99.90
30764;DHT22;17497;51.476;7.770;2022-11-21T09:20:25;4.80;99.90
30764;DHT22;17497;51.476;7.770;2022-11-21T09:22:51;4.80;99.90
30764;DHT22;17497;51.476;7.770;2022-11-21T09:25:18;4.90;99.90
30764;DHT22;17497;51.476;7.770;2022-11-21T09:27:45;4.90;99.90
30764;DHT22;17497;51.476;7.770;2022-11-21T09:30:12;5.00;99.90
30764;DHT22;17497;51.476;7.770;2022-11-21T09:32:39;5.00;99.90
30764;DHT22;17497;51.476;7.770;2022-11-21T09:35:07;5.10;99.90
30764;DHT22;17497;51.476;7.770;2022-11-21T09:37:37;5.10;99.90
30764;DHT22;17497;51.476;7.770;2022-11-21T09:40:04;5.10;99.90
30764;DHT22;17497;51.476;7.770;2022-11-21T09:43:05;5.00;99.90
30764;DHT22;17497;51.476;7.770;2022-11-21T09:45:43;5.00;99.90
30764;DHT22;17497;51.476;7.770;2022-11-21T09:48:14;5.10;99.90
30764;DHT22;17497;51.476;7.770;2022-11-21T09:50:55;5.10;99.90
30764;DHT22;17497;51.476;7.770;2022-11-21T09:53:29;5.10;99.90
30764;DHT22;17497;51.476;7.770;2022-11-21T09:56:00;5.20;99.90
30764;DHT22;17497;51.476;7.770;2022-11-21T09:58:48;5.20;99.90
30764;DHT22;17497;51.476;7.770;2022-11-21T10:01:17;5.10;99.90
30764;DHT22;17497;51.476;7.770;2022-11-21T10:03:48;5.10;99.90
30764;DHT22;17497;51.476;7.770;2022-11-21T10:06:24;5.10;99.90
30764;DHT22;17497;51.476;7.770;2022-11-21T10:11:42;5.20;99.90
30764;DHT22;17497;51.476;7.770;2022-11-21T10:23:42;5.30;99.90
30764;DHT22;17497;51.476;7.770;2022-11-21T10:26:15;5.30;99.90
30764;DHT22;17497;51.476;7.770;2022-11-21T10:31:34;5.40;99.90
30764;DHT22;17497;51.476;7.770;2022-11-21T10:34:02;5.40;99.90
30764;DHT22;17497;51.476;7.770;2022-11-21T10:36:33;5.40;99.90
30764;DHT22;17497;51.476;7.770;2022-11-21T10:39:12;5.50;99.90
30764;DHT22;17497;51.476;7.770;2022-11-21T10:44:39;5.50;99.90
30764;DHT22;17497;51.476;7.770;2022-11-21T10:47:32;5.50;99.90
30764;DHT22;17497;51.476;7.770;2022-11-21T10:52:35;5.60;99.90
30764;DHT22;17497;51.476;7.770;2022-11-21T10:57:35;5.80;99.90
30764;DHT22;17497;51.476;7.770;2022-11-21T11:05:24;6.00;99.90
30764;DHT22;17497;51.476;7.770;2022-11-21T11:07:58;6.00;99.90
30764;DHT22;17497;51.476;7.770;2022-11-21T11:10:26;6.00;99.90
30764;DHT22;17497;51.476;7.770;2022-11-21T11:12:54;6.00;99.90
30764;DHT22;17497;51.476;7.770;2022-11-21T11:21:22;6.20;99.90
30764;DHT22;17497;51.476;7.770;2022-11-21T11:23:51;6.20;99.90
30764;DHT22;17497;51.476;7.770;2022-11-21T11:26:28;6.30;99.90
30764;DHT22;17497;51.476;7.770;2022-11-21T11:29:16;6.30;99.90
30764;DHT22;17497;51.476;7.770;2022-11-21T11:34:27;6.40;99.90
30764;DHT22;17497;51.476;7.770;2022-11-21T11:37:33;6.40;99.90
30764;DHT22;17497;51.476;7.770;2022-11-21T11:48:45;6.80;99.90
30764;DHT22;17497;51.476;7.770;2022-11-21T11:51:52;7.00;99.90
30764;DHT22;17497;51.476;7.770;2022-11-21T11:54:28;7.20;99.90
30764;DHT22;17497;51.476;7.770;2022-11-21T11:56:58;7.40;99.90
30764;DHT22;17497;51.476;7.770;2022-11-21T11:59:30;7.50;99.90
30764;DHT22;17497;51.476;7.770;2022-11-21T12:04:44;7.60;99.90
30764;DHT22;17497;51.476;7.770;2022-11-21T12:07:21;7.80;99.90
30764;DHT22;17497;51.476;7.770;2022-11-21T12:10:19;8.10;99.90
30764;DHT22;17497;51.476;7.770;2022-11-21T12:12:55;8.40;99.90
30764;DHT22;17497;51.476;7.770;2022-11-21T12:15:35;8.70;99.90
30764;DHT22;17497;51.476;7.770;2022-11-21T12:23:52;9.20;99.90
30764;DHT22;17497;51.476;7.770;2022-11-21T12:29:14;9.00;99.90
30764;DHT22;17497;51.476;7.770;2022-11-21T13:06:26;9.20;99.90
30764;DHT22;17497;51.476;7.770;2022-11-21T13:08:54;9.00;99.90
30764;DHT22;17497;51.476;7.770;2022-11-21T13:11:42;8.90;99.90
30764;DHT22;17497;51.476;7.770;2022-11-21T13:14:59;8.70;99.90
30764;DHT22;17497;51.476;7.770;2022-11-21T13:20:16;8.50;99.90
30764;DHT22;17497;51.476;7.770;2022-11-21T13:25:39;8.60;99.90
30764;DHT22;17497;51.476;7.770;2022-11-21T13:30:53;8.80;99.90
30764;DHT22;17497;51.476;7.770;2022-11-21T13:36:11;8.70;99.90
30764;DHT22;17497;51.476;7.770;2022-11-21T13:52:48;8.00;99.90
30764;DHT22;17497;51.476;7.770;2022-11-21T13:58:04;7.80;99.90
30764;DHT22;17497;51.476;7.770;2022-11-21T14:01:02;7.70;99.90
30764;DHT22;17497;51.476;7.770;2022-11-21T14:06:32;7.70;99.90
30764;DHT22;17497;51.476;7.770;2022-11-21T14:11:45;7.70;99.90
30764;DHT22;17497;51.476;7.770;2022-11-21T14:14:28;7.80;99.90
30764;DHT22;17497;51.476;7.770;2022-11-21T14:17:24;7.90;99.90
30764;DHT22;17497;51.476;7.770;2022-11-21T14:19:57;8.00;99.90
30764;DHT22;17497;51.476;7.770;2022-11-21T14:22:34;8.00;99.90
30764;DHT22;17497;51.476;7.770;2022-11-21T14:25:16;8.00;99.90
30764;DHT22;17497;51.476;7.770;2022-11-21T14:27:54;8.00;99.90
30764;DHT22;17497;51.476;7.770;2022-11-21T14:30:36;8.00;99.90
30764;DHT22;17497;51.476;7.770;2022-11-21T14:36:02;7.90;99.90
30764;DHT22;17497;51.476;7.770;2022-11-21T14:38:42;7.90;99.90
30764;DHT22;17497;51.476;7.770;2022-11-21T14:46:28;7.70;99.90
30764;DHT22;17497;51.476;7.770;2022-11-21T14:48:56;7.50;99.90
30764;DHT22;17497;51.476;7.770;2022-11-21T14:51:23;7.50;99.90
30764;DHT22;17497;51.476;7.770;2022-11-21T14:53:51;7.40;99.90
30764;DHT22;17497;51.476;7.770;2022-11-21T14:56:29;7.40;99.90
30764;DHT22;17497;51.476;7.770;2022-11-21T14:59:00;7.30;99.90
30764;DHT22;17497;51.476;7.770;2022-11-21T15:01:30;7.10;99.90
30764;DHT22;17497;51.476;7.770;2022-11-21T15:06:29;6.90;99.90
30764;DHT22;17497;51.476;7.770;2022-11-21T15:08:59;6.90;99.90
30764;DHT22;17497;51.476;7.770;2022-11-21T15:16:55;6.50;99.90
30764;DHT22;17497;51.476;7.770;2022-11-21T15:19:27;6.40;99.90
30764;DHT22;17497;51.476;7.770;2022-11-21T15:21:57;6.20;99.90
30764;DHT22;17497;51.476;7.770;2022-11-21T15:32:33;5.90;99.90
30764;DHT22;17497;51.476;7.770;2022-11-21T15:35:26;5.80;99.90
30764;DHT22;17497;51.476;7.770;2022-11-21T15:37:57;5.80;99.90
30764;DHT22;17497;51.476;7.770;2022-11-21T15:40:24;5.80;99.90
30764;DHT22;17497;51.476;7.770;2022-11-21T15:42:51;5.80;99.90
30764;DHT22;17497;51.476;7.770;2022-11-21T15:45:21;5.80;99.90
30764;DHT22;17497;51.476;7.770;2022-11-21T15:47:48;5.70;99.90
30764;DHT22;17497;51.476;7.770;2022-11-21T15:50:16;5.60;99.90
30764;DHT22;17497;51.476;7.770;2022-11-21T15:52:47;5.60;99.90
30764;DHT22;17497;51.476;7.770;2022-11-21T15:55:41;5.60;99.90
30764;DHT22;17497;51.476;7.770;2022-11-21T15:58:07;5.50;99.90
30764;DHT22;17497;51.476;7.770;2022-11-21T16:00:38;5.40;99.90
30764;DHT22;17497;51.476;7.770;2022-11-21T16:03:05;5.40;99.90
30764;DHT22;17497;51.476;7.770;2022-11-21T16:05:31;5.40;99.90
30764;DHT22;17497;51.476;7.770;2022-11-21T16:07:58;5.40;99.90
30764;DHT22;17497;51.476;7.770;2022-11-21T16:10:25;5.30;99.90
30764;DHT22;17497;51.476;7.770;2022-11-21T16:12:53;5.30;99.90
30764;DHT22;17497;51.476;7.770;2022-11-21T16:15:20;5.40;99.90
30764;DHT22;17497;51.476;7.770;2022-11-21T16:17:47;5.40;99.90
30764;DHT22;17497;51.476;7.770;2022-11-21T16:20:14;5.50;99.90
30764;DHT22;17497;51.476;7.770;2022-11-21T16:22:41;5.50;99.90
30764;DHT22;17497;51.476;7.770;2022-11-21T16:25:13;5.50;99.90
30764;DHT22;17497;51.476;7.770;2022-11-21T16:27:40;5.50;99.90
30764;DHT22;17497;51.476;7.770;2022-11-21T16:30:07;5.50;99.90
30764;DHT22;17497;51.476;7.770;2022-11-21T16:32:34;5.50;99.90
30764;DHT22;17497;51.476;7.770;2022-11-21T16:35:01;5.50;99.90
30764;DHT22;17497;51.476;7.770;2022-11-21T16:37:30;5.50;99.90
30764;DHT22;17497;51.476;7.770;2022-11-21T16:39:57;5.50;99.90
30764;DHT22;17497;51.476;7.770;2022-11-21T16:42:24;5.50;99.90
30764;DHT22;17497;51.476;7.770;2022-11-21T16:44:50;5.50;99.90
30764;DHT22;17497;51.476;7.770;2022-11-21T16:47:17;5.40;99.90
30764;DHT22;17497;51.476;7.770;2022-11-21T16:49:45;5.40;99.90
30764;DHT22;17497;51.476;7.770;2022-11-21T16:52:14;5.40;99.90
30764;DHT22;17497;51.476;7.770;2022-11-21T16:54:41;5.40;99.90
30764;DHT22;17497;51.476;7.770;2022-11-21T16:57:08;5.40;99.90
30764;DHT22;17497;51.476;7.770;2022-11-21T16:59:34;5.40;99.90
30764;DHT22;17497;51.476;7.770;2022-11-21T17:02:01;5.40;99.90
30764;DHT22;17497;51.476;7.770;2022-11-21T17:04:28;5.50;99.90
30764;DHT22;17497;51.476;7.770;2022-11-21T17:06:55;5.50;99.90
30764;DHT22;17497;51.476;7.770;2022-11-21T17:09:22;5.40;99.90
30764;DHT22;17497;51.476;7.770;2022-11-21T17:11:49;5.50;99.90
30764;DHT22;17497;51.476;7.770;2022-11-21T17:14:15;5.40;99.90
30764;DHT22;17497;51.476;7.770;2022-11-21T17:16:42;5.50;99.90
30764;DHT22;17497;51.476;7.770;2022-11-21T17:19:10;5.50;99.90
30764;DHT22;17497;51.476;7.770;2022-11-21T17:21:37;5.40;99.90
30764;DHT22;17497;51.476;7.770;2022-11-21T17:24:04;5.40;99.90
30764;DHT22;17497;51.476;7.770;2022-11-21T17:26:34;5.50;99.90
30764;DHT22;17497;51.476;7.770;2022-11-21T17:29:02;5.40;99.90
30764;DHT22;17497;51.476;7.770;2022-11-21T17:31:30;5.40;99.90
30764;DHT22;17497;51.476;7.770;2022-11-21T17:33:58;5.40;99.90
30764;DHT22;17497;51.476;7.770;2022-11-21T17:36:28;5.40;99.90
30764;DHT22;17497;51.476;7.770;2022-11-21T17:38:55;5.50;99.90
30764;DHT22;17497;51.476;7.770;2022-11-21T17:41:23;5.50;99.90
30764;DHT22;17497;51.476;7.770;2022-11-21T17:47:04;5.50;99.90
30764;DHT22;17497;51.476;7.770;2022-11-21T17:49:31;5.50;99.90
30764;DHT22;17497;51.476;7.770;2022-11-21T17:52:04;5.40;99.90
30764;DHT22;17497;51.476;7.770;2022-11-21T17:54:31;5.50;99.90
30764;DHT22;17497;51.476;7.770;2022-11-21T17:56:57;5.50;99.90
30764;DHT22;17497;51.476;7.770;2022-11-21T17:59:25;5.60;99.90
30764;DHT22;17497;51.476;7.770;2022-11-21T18:01:54;5.50;99.90
30764;DHT22;17497;51.476;7.770;2022-11-21T18:04:22;5.50;99.90
30764;DHT22;17497;51.476;7.770;2022-11-21T18:06:49;5.60;99.90
30764;DHT22;17497;51.476;7.770;2022-11-21T18:09:16;5.60;99.90
30764;DHT22;17497;51.476;7.770;2022-11-21T18:11:43;5.60;99.90
30764;DHT22;17497;51.476;7.770;2022-11-21T18:14:12;5.60;99.90
30764;DHT22;17497;51.476;7.770;2022-11-21T18:16:40;5.60;99.90
30764;DHT22;17497;51.476;7.770;2022-11-21T18:19:15;5.60;99.90
30764;DHT22;17497;51.476;7.770;2022-11-21T18:21:43;5.60;99.90
30764;DHT22;17497;51.476;7.770;2022-11-21T18:24:11;5.60;99.90
30764;DHT22;17497;51.476;7.770;2022-11-21T18:26:39;5.60;99.90
30764;DHT22;17497;51.476;7.770;2022-11-21T18:29:07;5.70;99.90
30764;DHT22;17497;51.476;7.770;2022-11-21T18:31:54;5.70;99.90
30764;DHT22;17497;51.476;7.770;2022-11-21T18:34:21;5.70;99.90
30764;DHT22;17497;51.476;7.770;2022-11-21T18:36:48;5.70;99.90
30764;DHT22;17497;51.476;7.770;2022-11-21T18:39:14;5.80;99.90
30764;DHT22;17497;51.476;7.770;2022-11-21T18:41:42;5.80;99.90
30764;DHT22;17497;51.476;7.770;2022-11-21T18:44:09;5.80;99.90